Hlavní strana
METAR-TAF:

METAR-TAF

Letiště :

Ventspils, Lotyšsko

zeměpisná šířka: 57-21-28N, zeměpisná délka: 021-32-39E, výška: 6 m

Aktuální stav počasí

Zpráva byla vytvořena před 31 minutami, v 08:20 UTC
Severní vítr 11 kt
Teplota 15°C
Vlhkost vzduchu 67%
Tlak 1024 hPa
Viditelnost 10 km a více
Žádná oblačnost pod 1500 m, nevyskytují se cumulonimby.

METAR: EVVA 300820Z AUTO 36011KT CAVOK 15/09 Q1024

Čas: 11:51 (08:51 UTC)


TAF: chybějící

Stav a předpovědi počasí z více než 4 000 letišť (zprávy METAR a TAF).

Červené a žluté tečky na mapě představují dostupné meteorologické stanice.

Když kurzor umístíte na tečku, zobrazí se název stanice.

Pak kliknutím zobrazíte stav a předpověď počasí.

Chcete-li změnit mapu, kliknutím na zelené tlačítko se znaménkem +mapu přiblížíte, kliknutím na zelené tlačítko se znaménkem – mapu oddálíte a kliknutím na zelené šipky přejdete na sousední mapy.


METAR-TAF: